createdAt,value
2023-03-31T00:00:25.488Z,83.81
2023-03-31T00:02:54.792Z,83.77
2023-03-31T00:05:24.784Z,84.80
2023-03-31T00:08:01.104Z,85.05
2023-03-31T00:10:33.714Z,85.45
2023-03-31T00:13:02.199Z,84.50
2023-03-31T00:15:29.398Z,86.39
2023-03-31T00:18:00.577Z,86.12
2023-03-31T00:20:28.379Z,85.65
2023-03-31T00:22:57.842Z,87.21
2023-03-31T00:25:25.512Z,88.34
2023-03-31T00:27:53.052Z,86.88
2023-03-31T00:30:20.535Z,86.31
2023-03-31T00:32:47.856Z,86.82
2023-03-31T00:35:15.175Z,85.96
2023-03-31T00:37:43.402Z,86.07
2023-03-31T00:40:12.574Z,85.85
2023-03-31T00:42:43.850Z,85.53
2023-03-31T00:45:14.047Z,85.53
2023-03-31T00:47:41.831Z,84.46
2023-03-31T00:50:19.207Z,83.75
2023-03-31T00:52:48.970Z,83.32
2023-03-31T00:55:18.431Z,82.15
2023-03-31T00:57:46.846Z,80.84
2023-03-31T01:00:20.820Z,80.71
2023-03-31T01:02:53.237Z,81.20
2023-03-31T01:05:24.020Z,80.80
2023-03-31T01:07:54.014Z,79.67
2023-03-31T01:10:21.945Z,79.44
2023-03-31T01:12:52.817Z,79.05
2023-03-31T01:15:20.406Z,78.94
2023-03-31T01:17:50.478Z,78.33
2023-03-31T01:20:27.240Z,77.99
2023-03-31T01:23:14.770Z,78.83
2023-03-31T01:26:21.941Z,78.15
2023-03-31T01:29:02.092Z,78.03
2023-03-31T01:31:56.260Z,78.22
2023-03-31T01:34:45.793Z,78.71
2023-03-31T01:37:51.869Z,79.06
2023-03-31T01:40:35.680Z,79.35
2023-03-31T01:43:09.585Z,80.08
2023-03-31T01:45:57.775Z,80.57
2023-03-31T01:49:02.639Z,80.02
2023-03-31T01:51:34.248Z,78.18
2023-03-31T01:54:06.198Z,79.10
2023-03-31T01:56:47.686Z,79.04
2023-03-31T01:59:18.678Z,79.45
2023-03-31T02:02:13.862Z,80.23
2023-03-31T02:05:01.686Z,80.44
2023-03-31T02:07:39.549Z,80.62
2023-03-31T02:10:10.285Z,80.60
2023-03-31T02:12:40.175Z,79.60
2023-03-31T02:15:11.099Z,78.94
2023-03-31T02:17:40.289Z,78.73
2023-03-31T02:20:15.378Z,79.47
2023-03-31T02:22:46.014Z,78.78
2023-03-31T02:25:17.610Z,77.74
2023-03-31T02:27:50.180Z,78.20
2023-03-31T02:30:17.419Z,78.57
2023-03-31T02:32:46.764Z,79.19
2023-03-31T02:35:19.240Z,79.34
2023-03-31T02:37:46.926Z,78.80
2023-03-31T02:40:20.775Z,78.85
2023-03-31T02:42:49.616Z,79.99
2023-03-31T02:45:39.960Z,78.74
2023-03-31T02:48:24.349Z,77.81
2023-03-31T02:51:01.862Z,79.44
2023-03-31T02:53:54.216Z,79.05
2023-03-31T02:56:48.342Z,79.23
2023-03-31T02:59:24.579Z,79.11
2023-03-31T03:01:57.886Z,78.60
2023-03-31T03:04:34.175Z,79.29
2023-03-31T03:07:39.683Z,77.74
2023-03-31T03:10:10.427Z,79.21
2023-03-31T03:12:40.635Z,79.44
2023-03-31T03:15:10.407Z,78.73
2023-03-31T03:17:41.490Z,79.05
2023-03-31T03:20:09.959Z,78.60
2023-03-31T03:22:38.844Z,79.28
2023-03-31T03:25:11.662Z,78.51
2023-03-31T03:27:39.629Z,78.89
2023-03-31T03:30:09.423Z,79.15
2023-03-31T03:32:37.992Z,78.90
2023-03-31T03:35:06.687Z,78.50
2023-03-31T03:37:35.272Z,77.98
2023-03-31T03:40:03.899Z,77.20
2023-03-31T03:42:31.191Z,76.42
2023-03-31T03:44:58.518Z,77.56
2023-03-31T03:47:25.962Z,77.68
2023-03-31T03:49:53.250Z,77.86
2023-03-31T03:52:21.413Z,78.01
2023-03-31T03:54:48.662Z,76.71
2023-03-31T03:57:16.721Z,77.95
2023-03-31T03:59:45.565Z,78.71
2023-03-31T04:02:12.939Z,78.19
2023-03-31T04:04:40.325Z,78.29
2023-03-31T04:07:07.642Z,78.12
2023-03-31T04:09:34.962Z,78.70
2023-03-31T04:12:02.330Z,78.51
2023-03-31T04:14:29.668Z,78.05
2023-03-31T04:16:58.602Z,77.53
2023-03-31T04:19:27.551Z,76.64
2023-03-31T04:22:03.144Z,76.56
2023-03-31T04:24:33.030Z,76.78
2023-03-31T04:27:01.197Z,76.00
2023-03-31T04:29:28.544Z,75.85
2023-03-31T04:31:59.282Z,75.43
2023-03-31T04:34:35.044Z,76.22
2023-03-31T04:37:03.558Z,76.14
2023-03-31T04:39:31.090Z,75.83
2023-03-31T04:41:59.771Z,75.54
2023-03-31T04:44:35.289Z,74.72
2023-03-31T04:47:03.390Z,75.10
2023-03-31T04:49:34.326Z,75.18
2023-03-31T04:52:01.740Z,73.73
2023-03-31T04:54:29.009Z,73.78
2023-03-31T04:56:56.318Z,73.98
2023-03-31T04:59:23.614Z,73.36
2023-03-31T05:01:50.902Z,73.76
2023-03-31T05:04:18.240Z,73.62
2023-03-31T05:06:45.585Z,72.62
2023-03-31T05:09:12.869Z,72.78
2023-03-31T05:11:41.051Z,72.47
2023-03-31T05:14:11.391Z,71.01
2023-03-31T05:16:38.769Z,70.90
2023-03-31T05:19:06.235Z,71.19
2023-03-31T05:21:33.532Z,70.55
2023-03-31T05:24:00.794Z,70.32
2023-03-31T05:26:28.049Z,70.06
2023-03-31T05:28:55.386Z,70.29
2023-03-31T05:31:23.244Z,69.53
2023-03-31T05:33:50.716Z,69.58
2023-03-31T05:36:18.455Z,70.17
2023-03-31T05:38:47.722Z,70.03
2023-03-31T05:41:17.070Z,69.28
2023-03-31T05:43:44.527Z,69.10
2023-03-31T05:46:12.072Z,69.41
2023-03-31T05:48:39.501Z,68.63
2023-03-31T05:51:06.794Z,69.32
2023-03-31T05:53:34.171Z,68.99
2023-03-31T05:56:04.361Z,69.15
2023-03-31T05:58:31.777Z,68.58
2023-03-31T06:01:08.349Z,69.01
2023-03-31T06:03:37.725Z,68.59
2023-03-31T06:06:06.313Z,70.23
2023-03-31T06:08:34.437Z,69.35
2023-03-31T06:11:08.281Z,69.33
2023-03-31T06:13:36.940Z,69.91
2023-03-31T06:16:04.311Z,70.16
2023-03-31T06:18:33.614Z,69.52
2023-03-31T06:21:01.267Z,69.24
2023-03-31T06:23:28.777Z,68.12
2023-03-31T06:26:04.630Z,67.20
2023-03-31T06:28:31.959Z,67.09
2023-03-31T06:31:05.546Z,67.59
2023-03-31T06:33:34.024Z,67.53
2023-03-31T06:36:04.303Z,68.34
2023-03-31T06:38:32.604Z,68.01
2023-03-31T06:41:00.587Z,66.74
2023-03-31T06:43:27.895Z,66.38
2023-03-31T06:45:56.235Z,66.94
2023-03-31T06:48:25.322Z,67.02
2023-03-31T06:50:58.924Z,67.39
2023-03-31T06:53:26.472Z,66.56
2023-03-31T06:55:53.850Z,65.98
2023-03-31T06:58:21.466Z,66.43
2023-03-31T07:00:49.680Z,66.91
2023-03-31T07:03:19.055Z,63.70
2023-03-31T07:05:51.028Z,63.57
2023-03-31T07:08:18.975Z,63.56
2023-03-31T07:10:48.765Z,62.48
2023-03-31T07:13:16.941Z,62.66
2023-03-31T07:15:44.924Z,62.95
2023-03-31T07:18:12.755Z,63.85
2023-03-31T07:20:39.935Z,65.17
2023-03-31T07:23:08.620Z,64.89
2023-03-31T07:25:36.465Z,64.86
2023-03-31T07:28:05.166Z,65.51
2023-03-31T07:30:33.165Z,65.48
2023-03-31T07:33:01.811Z,65.12
2023-03-31T07:35:31.391Z,64.97
2023-03-31T07:37:59.087Z,65.44
2023-03-31T07:40:28.519Z,65.69
2023-03-31T07:42:55.820Z,65.69
2023-03-31T07:45:25.317Z,65.51
2023-03-31T07:47:53.010Z,65.39
2023-03-31T07:50:21.351Z,65.05
2023-03-31T07:52:51.955Z,64.57
2023-03-31T07:55:20.160Z,64.26
2023-03-31T07:57:47.722Z,64.02
2023-03-31T08:00:16.260Z,63.84
2023-03-31T08:02:44.042Z,63.77
2023-03-31T08:05:13.167Z,64.09
2023-03-31T08:07:42.237Z,64.09
2023-03-31T08:10:12.730Z,64.60
2023-03-31T08:12:39.976Z,63.94
2023-03-31T08:15:08.117Z,64.08
2023-03-31T08:17:35.757Z,64.87
2023-03-31T08:20:07.954Z,65.65
2023-03-31T08:22:37.012Z,65.52
2023-03-31T08:25:05.894Z,65.00
2023-03-31T08:27:34.678Z,65.24
2023-03-31T08:30:04.546Z,64.85
2023-03-31T08:32:32.994Z,64.62
2023-03-31T08:35:00.729Z,64.48
2023-03-31T08:37:28.413Z,64.75
2023-03-31T08:39:56.092Z,64.87
2023-03-31T08:42:56.302Z,63.93
2023-03-31T08:45:36.718Z,63.72
2023-03-31T08:48:08.052Z,62.90
2023-03-31T08:50:38.253Z,63.33
2023-03-31T08:53:13.964Z,62.87
2023-03-31T08:55:47.650Z,62.15
2023-03-31T08:58:28.128Z,61.49
2023-03-31T09:00:58.125Z,62.00
2023-03-31T09:03:31.831Z,60.43
2023-03-31T09:06:07.283Z,60.86
2023-03-31T09:08:37.339Z,60.69
2023-03-31T09:11:14.917Z,59.79
2023-03-31T09:13:50.872Z,59.07
2023-03-31T09:16:22.755Z,58.96
2023-03-31T09:18:50.916Z,58.30
2023-03-31T09:21:50.076Z,57.89
2023-03-31T09:24:24.222Z,57.94
2023-03-31T09:27:01.453Z,57.93
2023-03-31T09:29:34.708Z,58.14
2023-03-31T09:32:07.456Z,58.52
2023-03-31T09:34:34.928Z,58.67
2023-03-31T09:37:02.143Z,59.96
2023-03-31T09:39:29.372Z,59.69
2023-03-31T09:41:56.681Z,59.80
2023-03-31T09:44:42.373Z,58.61
2023-03-31T09:47:25.756Z,57.34
2023-03-31T09:49:54.045Z,57.00
2023-03-31T09:52:27.996Z,56.47
2023-03-31T09:54:56.937Z,57.01
2023-03-31T09:57:31.995Z,56.74
2023-03-31T10:00:16.605Z,55.88
2023-03-31T10:02:49.374Z,55.07
2023-03-31T10:05:30.556Z,55.55
2023-03-31T10:08:12.924Z,55.27
2023-03-31T10:10:45.491Z,55.01
2023-03-31T10:13:16.985Z,55.28
2023-03-31T10:15:44.808Z,54.69
2023-03-31T10:18:17.176Z,55.91
2023-03-31T10:20:50.620Z,56.28
2023-03-31T10:23:29.575Z,55.16
2023-03-31T10:25:57.101Z,55.85
2023-03-31T10:28:24.525Z,55.05
2023-03-31T10:31:04.191Z,54.31
2023-03-31T10:33:34.730Z,53.65
2023-03-31T10:36:09.278Z,53.91
2023-03-31T10:38:45.195Z,52.83
2023-03-31T10:41:12.807Z,52.57
2023-03-31T10:43:48.689Z,53.11
2023-03-31T10:46:15.979Z,53.38
2023-03-31T10:48:45.067Z,53.14
2023-03-31T10:51:28.698Z,53.32
2023-03-31T10:54:00.992Z,53.21
2023-03-31T10:56:43.811Z,53.40
2023-03-31T10:59:33.017Z,52.96
2023-03-31T11:02:23.384Z,53.17
2023-03-31T11:04:53.670Z,53.41
2023-03-31T11:07:29.913Z,53.78
2023-03-31T11:09:57.776Z,53.43
2023-03-31T11:12:31.229Z,53.41
2023-03-31T11:15:31.443Z,52.32
2023-03-31T11:17:58.668Z,52.75
2023-03-31T11:20:53.766Z,52.57
2023-03-31T11:23:40.009Z,52.41
2023-03-31T11:26:38.348Z,53.75
2023-03-31T11:29:23.138Z,53.64
2023-03-31T11:31:53.267Z,53.10
2023-03-31T11:34:39.531Z,52.77
2023-03-31T11:37:52.966Z,52.43
2023-03-31T11:40:51.353Z,51.83
2023-03-31T11:43:33.540Z,51.98
2023-03-31T11:46:05.130Z,51.75
2023-03-31T11:48:32.478Z,52.30
2023-03-31T11:51:02.008Z,52.22
2023-03-31T11:53:34.319Z,51.04
2023-03-31T11:56:02.641Z,50.07
2023-03-31T11:58:35.926Z,49.83
2023-03-31T12:01:17.042Z,49.34
2023-03-31T12:03:54.629Z,49.63
2023-03-31T12:06:24.478Z,49.66
2023-03-31T12:09:05.713Z,49.96
2023-03-31T12:11:43.404Z,50.50
2023-03-31T12:14:21.388Z,51.20
2023-03-31T12:16:58.444Z,52.58
2023-03-31T12:19:28.832Z,53.09
2023-03-31T12:22:20.585Z,53.39
2023-03-31T12:24:48.478Z,52.77
2023-03-31T12:27:29.549Z,51.93
2023-03-31T12:30:13.220Z,51.65
2023-03-31T12:32:43.742Z,51.68
2023-03-31T12:35:16.469Z,51.25
2023-03-31T12:38:11.682Z,50.23
2023-03-31T12:41:03.771Z,49.37
2023-03-31T12:43:55.125Z,49.43
2023-03-31T12:46:34.928Z,49.35
2023-03-31T12:49:19.220Z,49.36
2023-03-31T12:52:04.387Z,49.49
2023-03-31T12:54:44.525Z,49.15
2023-03-31T12:57:11.753Z,48.96
2023-03-31T12:59:41.489Z,48.81
2023-03-31T13:02:17.434Z,49.05
2023-03-31T13:04:44.922Z,49.65
2023-03-31T13:07:29.128Z,50.00
2023-03-31T13:09:58.578Z,50.62
2023-03-31T13:12:28.252Z,49.53
2023-03-31T13:15:01.521Z,49.69
2023-03-31T13:17:30.059Z,50.04
2023-03-31T13:20:16.050Z,49.59
2023-03-31T13:22:48.493Z,49.56
2023-03-31T13:25:31.358Z,48.77
2023-03-31T13:28:09.255Z,49.27
2023-03-31T13:30:36.844Z,48.73
2023-03-31T13:33:26.965Z,48.72
2023-03-31T13:35:57.550Z,49.38
2023-03-31T13:38:42.159Z,50.40
2023-03-31T13:41:19.123Z,50.93
2023-03-31T13:43:55.062Z,50.95
2023-03-31T13:46:30.622Z,53.21
2023-03-31T13:49:12.051Z,53.24
2023-03-31T13:51:49.073Z,54.33
2023-03-31T13:54:36.353Z,54.44
2023-03-31T13:57:29.500Z,55.32
2023-03-31T14:00:14.343Z,54.94
2023-03-31T14:03:07.755Z,58.81
2023-03-31T14:05:53.880Z,61.38
2023-03-31T14:08:24.135Z,65.55
2023-03-31T14:10:51.264Z,69.91
2023-03-31T14:13:19.767Z,73.71
2023-03-31T14:15:58.612Z,72.75
2023-03-31T14:18:29.702Z,71.15
2023-03-31T14:21:06.451Z,71.37
2023-03-31T14:24:05.546Z,71.66
2023-03-31T14:26:56.502Z,72.49
2023-03-31T14:29:53.138Z,72.40
2023-03-31T14:32:29.702Z,71.57
2023-03-31T14:35:08.435Z,70.16
2023-03-31T14:37:35.848Z,67.94
2023-03-31T14:40:04.812Z,66.12
2023-03-31T14:42:39.556Z,65.11
2023-03-31T14:45:17.047Z,62.50
2023-03-31T14:48:04.674Z,61.92
2023-03-31T14:50:34.910Z,62.44
2023-03-31T14:53:02.357Z,61.45
2023-03-31T14:55:44.187Z,61.35
2023-03-31T14:58:26.140Z,63.63
2023-03-31T15:00:54.159Z,67.50
2023-03-31T15:03:21.601Z,70.67
2023-03-31T15:05:50.278Z,73.64
2023-03-31T15:08:20.766Z,76.90
2023-03-31T15:11:02.434Z,78.87
2023-03-31T15:14:03.373Z,77.19
2023-03-31T15:16:44.465Z,76.60
2023-03-31T15:19:21.400Z,75.79
2023-03-31T15:22:04.670Z,74.99
2023-03-31T15:24:32.046Z,75.19
2023-03-31T15:27:10.026Z,74.38
2023-03-31T15:30:07.061Z,72.21
2023-03-31T15:32:39.346Z,70.62
2023-03-31T15:35:21.140Z,68.85
2023-03-31T15:37:58.299Z,68.49
2023-03-31T15:40:28.409Z,68.20
2023-03-31T15:43:24.572Z,67.88
2023-03-31T15:45:54.398Z,67.99
2023-03-31T15:48:36.469Z,66.83
2023-03-31T15:51:17.907Z,65.79
2023-03-31T15:53:47.228Z,65.73
2023-03-31T15:56:32.332Z,64.75
2023-03-31T15:59:07.007Z,64.26
2023-03-31T16:01:45.835Z,64.16
2023-03-31T16:04:15.203Z,64.29
2023-03-31T16:06:55.517Z,63.05
2023-03-31T16:09:26.367Z,64.03
2023-03-31T16:11:58.527Z,63.47
2023-03-31T16:14:38.678Z,64.44
2023-03-31T16:17:06.940Z,65.19
2023-03-31T16:19:51.189Z,65.37
2023-03-31T16:22:21.629Z,64.45
2023-03-31T16:24:49.237Z,64.80
2023-03-31T16:27:16.490Z,65.06
2023-03-31T16:29:43.753Z,64.67
2023-03-31T16:32:15.452Z,64.76
2023-03-31T16:34:56.800Z,63.88
2023-03-31T16:37:24.598Z,64.27
2023-03-31T16:39:51.896Z,63.05
2023-03-31T16:42:19.806Z,62.79
2023-03-31T16:44:52.894Z,62.32
2023-03-31T16:47:35.205Z,63.23
2023-03-31T16:50:07.332Z,64.02
2023-03-31T16:52:36.042Z,64.10
2023-03-31T16:55:03.374Z,64.75
2023-03-31T16:57:30.754Z,64.89
2023-03-31T16:59:59.037Z,63.95
2023-03-31T17:02:26.754Z,63.93
2023-03-31T17:04:56.566Z,64.67
2023-03-31T17:07:27.039Z,65.34
2023-03-31T17:09:54.261Z,64.91
2023-03-31T17:12:21.574Z,64.55
2023-03-31T17:14:49.057Z,64.56
2023-03-31T17:17:18.013Z,64.56
2023-03-31T17:19:45.488Z,64.04
2023-03-31T17:22:13.134Z,64.37
2023-03-31T17:24:40.803Z,64.82
2023-03-31T17:27:08.116Z,64.82
2023-03-31T17:29:35.477Z,65.29
2023-03-31T17:32:02.956Z,64.96
2023-03-31T17:34:31.775Z,64.81
2023-03-31T17:36:59.801Z,63.37
2023-03-31T17:39:27.701Z,63.41
2023-03-31T17:41:55.051Z,62.57
2023-03-31T17:44:22.626Z,62.69
2023-03-31T17:46:50.004Z,62.68
2023-03-31T17:49:17.643Z,63.02
2023-03-31T17:51:49.761Z,63.70
2023-03-31T17:54:17.053Z,63.88
2023-03-31T17:56:45.449Z,64.74
2023-03-31T17:59:12.765Z,64.40
2023-03-31T18:01:40.167Z,63.94
2023-03-31T18:04:08.246Z,65.34
2023-03-31T18:06:35.511Z,64.89
2023-03-31T18:09:02.913Z,64.56
2023-03-31T18:11:31.085Z,63.74
2023-03-31T18:14:01.978Z,63.37
2023-03-31T18:16:31.054Z,63.17
2023-03-31T18:18:58.306Z,61.87
2023-03-31T18:21:25.813Z,62.41
2023-03-31T18:23:55.088Z,62.40
2023-03-31T18:26:24.100Z,61.61
2023-03-31T18:28:52.610Z,62.24
2023-03-31T18:31:22.378Z,61.56
2023-03-31T18:33:50.002Z,61.86
2023-03-31T18:36:18.978Z,61.95
2023-03-31T18:38:47.956Z,62.00
2023-03-31T18:41:16.110Z,61.71
2023-03-31T18:43:43.512Z,61.11
2023-03-31T18:46:11.463Z,61.86
2023-03-31T18:48:39.230Z,61.97
2023-03-31T18:51:06.890Z,62.01
2023-03-31T18:53:34.192Z,61.75
2023-03-31T18:56:01.660Z,59.93
2023-03-31T18:58:30.167Z,60.07
2023-03-31T19:00:58.216Z,60.49
2023-03-31T19:03:29.191Z,61.03
2023-03-31T19:06:05.237Z,61.40
2023-03-31T19:08:32.773Z,62.11
2023-03-31T19:11:18.196Z,62.22
2023-03-31T19:13:45.694Z,62.22
2023-03-31T19:16:13.478Z,62.44
2023-03-31T19:18:41.121Z,62.38
2023-03-31T19:21:08.423Z,61.55
2023-03-31T19:23:35.731Z,62.60
2023-03-31T19:26:03.244Z,63.38
2023-03-31T19:28:30.654Z,63.40
2023-03-31T19:30:58.594Z,63.91
2023-03-31T19:33:26.728Z,63.92
2023-03-31T19:35:54.227Z,62.97
2023-03-31T19:38:22.003Z,64.10
2023-03-31T19:40:49.608Z,64.17
2023-03-31T19:43:21.129Z,64.89
2023-03-31T19:45:48.924Z,64.42
2023-03-31T19:48:16.690Z,64.24
2023-03-31T19:50:51.230Z,64.24
2023-03-31T19:53:19.536Z,64.35
2023-03-31T19:56:03.642Z,64.90
2023-03-31T19:58:33.154Z,65.25
2023-03-31T20:01:00.396Z,64.90
2023-03-31T20:03:28.209Z,65.76
2023-03-31T20:06:07.258Z,65.81
2023-03-31T20:08:39.444Z,65.02
2023-03-31T20:11:09.783Z,65.32
2023-03-31T20:13:38.297Z,65.11
2023-03-31T20:16:10.765Z,64.59
2023-03-31T20:18:38.680Z,64.49
2023-03-31T20:21:11.536Z,64.54
2023-03-31T20:23:39.977Z,64.79
2023-03-31T20:26:09.031Z,65.48
2023-03-31T20:28:37.862Z,66.13
2023-03-31T20:31:13.294Z,66.01
2023-03-31T20:33:42.048Z,66.37
2023-03-31T20:36:12.085Z,65.51
2023-03-31T20:38:41.309Z,66.33
2023-03-31T20:41:09.582Z,66.54
2023-03-31T20:43:37.275Z,66.79
2023-03-31T20:46:06.533Z,66.54
2023-03-31T20:48:46.574Z,66.44
2023-03-31T20:51:16.425Z,68.40
2023-03-31T20:53:45.659Z,68.22
2023-03-31T20:56:15.201Z,67.61
2023-03-31T20:58:44.092Z,67.45
2023-03-31T21:01:13.081Z,67.70
2023-03-31T21:03:41.270Z,67.18
2023-03-31T21:06:11.963Z,67.77
2023-03-31T21:08:40.769Z,67.51
2023-03-31T21:11:08.596Z,67.65
2023-03-31T21:13:36.082Z,67.23
2023-03-31T21:16:04.592Z,67.15
2023-03-31T21:18:33.419Z,67.78
2023-03-31T21:21:03.275Z,67.09
2023-03-31T21:23:30.920Z,66.46
2023-03-31T21:26:00.604Z,66.12
2023-03-31T21:28:30.281Z,66.76
2023-03-31T21:31:12.545Z,66.51
2023-03-31T21:33:41.646Z,67.46
2023-03-31T21:36:14.756Z,68.12
2023-03-31T21:38:42.556Z,68.27
2023-03-31T21:41:12.561Z,67.78
2023-03-31T21:43:40.285Z,67.14
2023-03-31T21:46:08.002Z,66.86
2023-03-31T21:48:35.584Z,67.29
2023-03-31T21:51:03.596Z,68.38
2023-03-31T21:53:31.502Z,67.64
2023-03-31T21:55:59.276Z,68.32
2023-03-31T21:58:29.128Z,68.25
2023-03-31T22:00:58.011Z,68.41
2023-03-31T22:03:28.663Z,69.21
2023-03-31T22:05:57.453Z,70.62
2023-03-31T22:08:26.946Z,70.39
2023-03-31T22:10:55.567Z,71.10
2023-03-31T22:13:24.156Z,71.60
2023-03-31T22:15:51.517Z,72.26
2023-03-31T22:18:19.468Z,72.61
2023-03-31T22:20:46.890Z,73.24
2023-03-31T22:23:15.027Z,72.86
2023-03-31T22:25:42.584Z,73.14
2023-03-31T22:28:10.374Z,73.81
2023-03-31T22:30:37.813Z,74.38
2023-03-31T22:33:05.588Z,74.46
2023-03-31T22:35:33.188Z,74.71
2023-03-31T22:38:01.540Z,75.21
2023-03-31T22:40:30.134Z,74.86
2023-03-31T22:42:58.424Z,75.47
2023-03-31T22:45:25.778Z,76.20
2023-03-31T22:47:53.009Z,77.38
2023-03-31T22:50:20.420Z,78.23
2023-03-31T22:52:47.593Z,77.76
2023-03-31T22:55:14.916Z,78.04
2023-03-31T22:57:42.617Z,78.28
2023-03-31T23:00:10.669Z,79.20
2023-03-31T23:02:38.011Z,79.30
2023-03-31T23:05:06.265Z,79.54
2023-03-31T23:07:33.451Z,80.52
2023-03-31T23:10:00.701Z,81.42
2023-03-31T23:12:28.520Z,80.88
2023-03-31T23:14:56.111Z,81.30
2023-03-31T23:17:23.556Z,81.13
2023-03-31T23:19:51.344Z,80.79
2023-03-31T23:22:19.052Z,80.52
2023-03-31T23:24:48.759Z,79.99
2023-03-31T23:27:16.113Z,80.51
2023-03-31T23:29:43.985Z,80.56
2023-03-31T23:32:11.623Z,80.71
2023-03-31T23:34:42.248Z,81.24
2023-03-31T23:37:10.722Z,80.47
2023-03-31T23:39:38.879Z,79.08
2023-03-31T23:42:07.351Z,79.41
2023-03-31T23:44:37.196Z,78.39
2023-03-31T23:47:05.567Z,79.19
2023-03-31T23:49:33.408Z,77.94
2023-03-31T23:52:01.308Z,78.20
2023-03-31T23:54:28.956Z,78.17
2023-03-31T23:56:56.354Z,77.13
2023-03-31T23:59:23.755Z,77.29
